createdAt,value
2019-04-22T00:00:11.169Z,0.00
2019-04-22T00:01:13.776Z,0.00
2019-04-22T00:02:12.937Z,0.00
2019-04-22T00:03:14.214Z,0.00
2019-04-22T00:04:17.399Z,0.00
2019-04-22T00:05:20.238Z,0.00
2019-04-22T00:06:34.116Z,0.00
2019-04-22T00:07:35.858Z,0.00
2019-04-22T00:09:41.843Z,0.00
2019-04-22T00:10:41.999Z,0.00
2019-04-22T00:11:28.863Z,0.00
2019-04-22T00:12:28.015Z,0.00
2019-04-22T00:14:30.890Z,0.00
2019-04-22T00:15:34.011Z,0.00
2019-04-22T00:16:34.295Z,0.00
2019-04-22T00:17:30.510Z,0.00
2019-04-22T00:18:48.006Z,0.00
2019-04-22T00:19:30.365Z,0.00
2019-04-22T00:20:35.417Z,0.00
2019-04-22T00:22:28.873Z,0.00
2019-04-22T00:23:24.680Z,0.00
2019-04-22T00:24:39.105Z,0.00
2019-04-22T00:27:42.440Z,0.00
2019-04-22T00:28:36.663Z,0.00
2019-04-22T00:29:53.875Z,0.00
2019-04-22T00:30:34.298Z,0.00
2019-04-22T00:31:33.204Z,0.00
2019-04-22T00:33:32.314Z,0.00
2019-04-22T00:34:29.407Z,0.00
2019-04-22T00:35:38.316Z,0.00
2019-04-22T00:36:35.030Z,0.00
2019-04-22T00:38:38.743Z,0.00
2019-04-22T00:39:33.731Z,0.00
2019-04-22T00:41:40.545Z,0.00
2019-04-22T00:44:39.077Z,0.05
2019-04-22T00:46:38.303Z,0.00
2019-04-22T00:48:35.959Z,0.00
2019-04-22T00:50:09.276Z,0.00
2019-04-22T00:50:37.433Z,0.00
2019-04-22T00:52:34.391Z,0.00
2019-04-22T00:53:35.256Z,0.00
2019-04-22T00:54:43.970Z,0.00
2019-04-22T00:55:38.089Z,0.00
2019-04-22T00:56:28.385Z,0.00
2019-04-22T00:57:32.448Z,0.00
2019-04-22T00:58:36.771Z,0.00
2019-04-22T00:59:32.971Z,0.00
2019-04-22T01:01:23.883Z,0.00
2019-04-22T01:03:43.726Z,0.00
2019-04-22T01:04:44.215Z,0.00
2019-04-22T01:05:30.225Z,0.00
2019-04-22T01:06:35.900Z,0.00
2019-04-22T01:08:43.506Z,0.00
2019-04-22T01:09:43.234Z,0.00
2019-04-22T01:10:39.023Z,0.00
2019-04-22T01:11:34.966Z,0.00
2019-04-22T01:12:28.561Z,0.00
2019-04-22T01:13:31.376Z,0.00
2019-04-22T01:14:38.252Z,0.00
2019-04-22T01:16:35.942Z,0.00
2019-04-22T01:18:32.604Z,0.00
2019-04-22T01:19:38.951Z,0.00
2019-04-22T01:21:00.846Z,0.00
2019-04-22T01:22:28.543Z,0.00
2019-04-22T01:23:34.544Z,0.00
2019-04-22T01:24:32.793Z,0.00
2019-04-22T01:25:30.965Z,0.00
2019-04-22T01:26:29.917Z,0.00
2019-04-22T01:27:26.318Z,0.00
2019-04-22T01:28:27.295Z,0.00
2019-04-22T01:29:22.626Z,0.00
2019-04-22T01:30:21.171Z,0.00
2019-04-22T01:31:17.883Z,0.00
2019-04-22T01:32:21.037Z,0.00
2019-04-22T01:33:21.068Z,0.00
2019-04-22T01:34:27.875Z,0.00
2019-04-22T01:35:20.953Z,0.00
2019-04-22T01:36:30.113Z,0.00
2019-04-22T01:37:31.634Z,0.00
2019-04-22T01:38:34.962Z,0.00
2019-04-22T01:39:39.022Z,0.00
2019-04-22T01:40:38.964Z,0.00
2019-04-22T01:41:41.824Z,0.00
2019-04-22T01:42:41.206Z,0.00
2019-04-22T01:43:41.003Z,0.00
2019-04-22T01:45:26.734Z,0.00
2019-04-22T01:46:41.830Z,0.00
2019-04-22T01:47:36.702Z,0.00
2019-04-22T01:48:40.580Z,0.00
2019-04-22T01:49:27.609Z,0.00
2019-04-22T01:50:26.310Z,0.00
2019-04-22T01:51:45.220Z,0.00
2019-04-22T01:52:41.620Z,0.00
2019-04-22T01:53:43.280Z,0.00
2019-04-22T01:54:45.421Z,0.00
2019-04-22T01:55:38.082Z,0.00
2019-04-22T01:56:27.367Z,0.00
2019-04-22T01:57:34.990Z,0.00
2019-04-22T01:59:31.900Z,0.00
2019-04-22T02:00:36.003Z,0.00
2019-04-22T02:01:30.747Z,0.00
2019-04-22T02:02:30.478Z,0.00
2019-04-22T02:03:44.409Z,0.00
2019-04-22T02:04:39.734Z,0.00
2019-04-22T02:05:35.766Z,0.00
2019-04-22T02:06:30.288Z,0.00
2019-04-22T02:07:34.344Z,0.00
2019-04-22T02:08:31.393Z,0.00
2019-04-22T02:10:40.375Z,0.00
2019-04-22T02:12:29.848Z,0.00
2019-04-22T02:13:38.188Z,0.00
2019-04-22T02:14:39.336Z,0.00
2019-04-22T02:15:46.511Z,0.00
2019-04-22T02:16:27.614Z,0.00
2019-04-22T02:17:38.293Z,0.00
2019-04-22T02:18:41.995Z,0.01
2019-04-22T02:19:41.420Z,0.01
2019-04-22T02:20:35.899Z,0.00
2019-04-22T02:21:38.212Z,0.00
2019-04-22T02:22:52.320Z,0.63
2019-04-22T02:24:42.506Z,0.00
2019-04-22T02:25:42.709Z,0.02
2019-04-22T02:26:31.395Z,0.00
2019-04-22T02:27:39.006Z,0.01
2019-04-22T02:30:54.272Z,0.00
2019-04-22T02:31:44.306Z,0.00
2019-04-22T02:34:01.256Z,0.00
2019-04-22T02:34:37.461Z,0.00
2019-04-22T02:36:33.906Z,0.00
2019-04-22T02:38:51.851Z,0.00
2019-04-22T02:40:58.450Z,0.00
2019-04-22T02:41:31.187Z,0.00
2019-04-22T02:42:35.247Z,0.00
2019-04-22T02:43:51.879Z,0.00
2019-04-22T02:44:28.725Z,0.00
2019-04-22T02:45:52.590Z,0.00
2019-04-22T02:46:56.792Z,0.00
2019-04-22T02:47:27.634Z,0.00
2019-04-22T02:49:37.360Z,0.00
2019-04-22T02:50:43.901Z,0.14
2019-04-22T02:51:32.877Z,0.21
2019-04-22T02:52:34.779Z,0.01
2019-04-22T02:54:15.147Z,0.00
2019-04-22T02:54:51.016Z,0.00
2019-04-22T02:55:32.369Z,0.00
2019-04-22T02:56:38.105Z,0.00
2019-04-22T02:57:45.077Z,0.00
2019-04-22T02:59:39.860Z,0.00
2019-04-22T03:00:46.669Z,0.00
2019-04-22T03:02:50.644Z,0.00
2019-04-22T03:04:41.453Z,0.00
2019-04-22T03:05:51.090Z,0.00
2019-04-22T03:06:38.562Z,0.00
2019-04-22T03:07:40.633Z,0.00
2019-04-22T03:10:37.176Z,0.00
2019-04-22T03:11:24.714Z,0.22
2019-04-22T03:12:28.456Z,0.13
2019-04-22T03:13:38.266Z,0.22
2019-04-22T03:14:40.422Z,0.00
2019-04-22T03:15:38.044Z,0.00
2019-04-22T03:16:31.953Z,0.00
2019-04-22T03:17:34.363Z,0.00
2019-04-22T03:20:33.530Z,0.00
2019-04-22T03:21:38.060Z,0.00
2019-04-22T03:22:28.684Z,0.00
2019-04-22T03:23:58.619Z,0.00
2019-04-22T03:24:36.285Z,0.00
2019-04-22T03:26:00.363Z,0.00
2019-04-22T03:26:38.889Z,0.00
2019-04-22T03:28:44.421Z,0.00
2019-04-22T03:30:00.911Z,0.00
2019-04-22T03:33:43.607Z,0.00
2019-04-22T03:36:05.971Z,0.00
2019-04-22T03:37:02.480Z,0.00
2019-04-22T03:40:46.661Z,0.00
2019-04-22T03:41:57.319Z,0.00
2019-04-22T03:42:52.081Z,0.00
2019-04-22T03:46:50.962Z,0.00
2019-04-22T03:47:48.050Z,0.00
2019-04-22T03:48:45.856Z,0.00
2019-04-22T03:49:57.841Z,0.00
2019-04-22T03:50:28.031Z,0.00
2019-04-22T03:52:30.969Z,0.00
2019-04-22T03:53:32.659Z,0.00
2019-04-22T03:54:53.883Z,0.00
2019-04-22T03:57:18.449Z,0.00
2019-04-22T03:57:50.437Z,0.00
2019-04-22T03:58:49.556Z,0.00
2019-04-22T03:59:48.094Z,0.00
2019-04-22T04:00:47.811Z,0.00
2019-04-22T04:01:37.055Z,0.00
2019-04-22T04:02:45.723Z,0.00
2019-04-22T04:03:36.318Z,0.00
2019-04-22T04:04:43.586Z,0.00
2019-04-22T04:07:47.482Z,0.00
2019-04-22T04:08:26.368Z,0.32
2019-04-22T04:10:40.097Z,0.12
2019-04-22T04:12:53.950Z,0.06
2019-04-22T04:13:37.403Z,0.00
2019-04-22T04:15:29.906Z,0.20
2019-04-22T04:16:52.122Z,0.21
2019-04-22T04:18:46.595Z,0.00
2019-04-22T04:20:44.779Z,0.00
2019-04-22T04:21:41.322Z,0.00
2019-04-22T04:24:53.809Z,0.00
2019-04-22T04:27:50.860Z,0.00
2019-04-22T04:28:39.796Z,0.00
2019-04-22T04:29:58.079Z,0.00
2019-04-22T04:30:31.231Z,0.00
2019-04-22T04:35:07.685Z,0.00
2019-04-22T04:37:52.502Z,0.10
2019-04-22T04:38:46.418Z,0.00
2019-04-22T04:39:53.454Z,0.00
2019-04-22T04:40:41.972Z,0.00
2019-04-22T04:41:57.440Z,0.00
2019-04-22T04:42:46.448Z,0.00
2019-04-22T04:44:59.239Z,0.00
2019-04-22T04:45:44.884Z,0.00
2019-04-22T04:47:49.345Z,0.00
2019-04-22T04:48:56.173Z,0.00
2019-04-22T04:49:37.451Z,0.00
2019-04-22T04:50:34.339Z,0.00
2019-04-22T04:51:33.252Z,0.00
2019-04-22T04:53:02.614Z,0.00
2019-04-22T04:54:53.844Z,0.00
2019-04-22T04:55:35.044Z,0.00
2019-04-22T04:56:42.441Z,0.00
2019-04-22T04:58:55.853Z,0.00
2019-04-22T05:00:10.860Z,0.00
2019-04-22T05:00:57.707Z,0.00
2019-04-22T05:01:45.084Z,0.00
2019-04-22T05:03:49.326Z,0.00
2019-04-22T05:05:45.654Z,0.00
2019-04-22T05:07:36.788Z,0.00
2019-04-22T05:09:01.485Z,0.00
2019-04-22T05:09:34.640Z,0.00
2019-04-22T05:10:47.936Z,0.08
2019-04-22T05:11:42.988Z,0.42
2019-04-22T05:12:53.091Z,0.28
2019-04-22T05:13:52.857Z,0.15
2019-04-22T05:15:55.369Z,0.00
2019-04-22T05:17:35.177Z,0.00
2019-04-22T05:18:44.274Z,0.00
2019-04-22T05:19:26.553Z,0.00
2019-04-22T05:21:22.412Z,0.00
2019-04-22T05:23:45.599Z,0.10
2019-04-22T05:24:28.268Z,0.29
2019-04-22T05:25:36.845Z,0.37
2019-04-22T05:26:40.033Z,0.50
2019-04-22T05:27:41.198Z,0.14
2019-04-22T05:28:35.057Z,0.53
2019-04-22T05:29:54.162Z,0.37
2019-04-22T05:30:26.755Z,0.29
2019-04-22T05:31:33.980Z,0.20
2019-04-22T05:33:34.818Z,0.00
2019-04-22T05:34:36.562Z,0.14
2019-04-22T05:35:37.828Z,0.47
2019-04-22T05:36:28.247Z,0.66
2019-04-22T05:37:31.007Z,0.78
2019-04-22T05:39:28.451Z,0.00
2019-04-22T05:40:28.239Z,0.25
2019-04-22T05:41:32.281Z,1.34
2019-04-22T05:42:32.169Z,1.82
2019-04-22T05:43:27.369Z,1.42
2019-04-22T05:44:29.548Z,1.65
2019-04-22T05:45:31.457Z,1.45
2019-04-22T05:46:34.535Z,1.72
2019-04-22T05:47:39.321Z,1.84
2019-04-22T05:49:31.183Z,2.25
2019-04-22T05:50:24.542Z,1.57
2019-04-22T05:51:38.522Z,1.27
2019-04-22T05:52:36.481Z,1.30
2019-04-22T05:53:32.395Z,0.67
2019-04-22T05:54:27.870Z,1.49
2019-04-22T05:55:30.600Z,1.48
2019-04-22T05:56:38.655Z,1.52
2019-04-22T05:57:24.738Z,1.35
2019-04-22T05:58:38.220Z,1.77
2019-04-22T05:59:39.552Z,1.41
2019-04-22T06:01:06.581Z,0.38
2019-04-22T06:01:48.124Z,0.40
2019-04-22T06:02:47.581Z,1.88
2019-04-22T06:03:37.907Z,1.23
2019-04-22T06:04:29.625Z,2.06
2019-04-22T06:05:34.351Z,1.15
2019-04-22T06:06:22.440Z,1.74
2019-04-22T06:07:33.724Z,1.45
2019-04-22T06:08:41.600Z,1.16
2019-04-22T06:09:32.649Z,0.61
2019-04-22T06:10:39.835Z,0.92
2019-04-22T06:11:28.419Z,1.12
2019-04-22T06:12:20.949Z,0.79
2019-04-22T06:13:33.047Z,1.25
2019-04-22T06:14:31.340Z,0.63
2019-04-22T06:16:38.170Z,0.14
2019-04-22T06:17:43.137Z,0.37
2019-04-22T06:18:33.500Z,1.03
2019-04-22T06:19:24.800Z,0.73
2019-04-22T06:20:32.739Z,0.23
2019-04-22T06:22:43.307Z,0.05
2019-04-22T06:23:44.073Z,0.05
2019-04-22T06:24:38.553Z,0.44
2019-04-22T06:26:48.926Z,0.73
2019-04-22T06:27:30.479Z,0.32
2019-04-22T06:28:41.409Z,0.83
2019-04-22T06:29:25.053Z,0.76
2019-04-22T06:30:29.148Z,0.80
2019-04-22T06:31:54.452Z,0.57
2019-04-22T06:33:31.995Z,1.00
2019-04-22T06:34:40.407Z,1.17
2019-04-22T06:35:32.495Z,1.59
2019-04-22T06:36:29.487Z,1.38
2019-04-22T06:37:35.053Z,1.04
2019-04-22T06:39:36.916Z,1.32
2019-04-22T06:42:28.472Z,0.38
2019-04-22T06:43:29.137Z,0.51
2019-04-22T06:44:38.904Z,0.19
2019-04-22T06:45:33.772Z,0.04
2019-04-22T06:46:30.101Z,0.23
2019-04-22T06:47:52.696Z,0.66
2019-04-22T06:49:35.846Z,0.11
2019-04-22T06:50:30.262Z,0.25
2019-04-22T06:52:35.014Z,0.81
2019-04-22T06:53:35.961Z,0.94
2019-04-22T06:55:33.016Z,0.39
2019-04-22T06:56:35.205Z,0.16
2019-04-22T06:57:39.450Z,0.81
2019-04-22T06:58:36.592Z,0.89
2019-04-22T06:59:36.373Z,0.96
2019-04-22T07:00:38.133Z,1.07
2019-04-22T07:02:46.453Z,0.19
2019-04-22T07:03:42.779Z,0.40
2019-04-22T07:04:33.680Z,0.32
2019-04-22T07:05:28.675Z,0.66
2019-04-22T07:06:42.345Z,1.56
2019-04-22T07:07:39.988Z,0.87
2019-04-22T07:09:07.825Z,0.09
2019-04-22T07:09:43.498Z,0.00
2019-04-22T07:12:31.375Z,0.20
2019-04-22T07:13:27.468Z,0.85
2019-04-22T07:14:35.632Z,0.94
2019-04-22T07:15:46.419Z,1.14
2019-04-22T07:16:37.877Z,0.84
2019-04-22T07:17:45.922Z,1.30
2019-04-22T07:18:35.951Z,1.34
2019-04-22T07:19:28.863Z,1.12
2019-04-22T07:20:36.749Z,2.34
2019-04-22T07:21:37.630Z,0.85
2019-04-22T07:22:38.942Z,1.14
2019-04-22T07:24:35.594Z,1.29
2019-04-22T07:25:35.047Z,0.88
2019-04-22T07:27:34.247Z,1.18
2019-04-22T07:28:29.122Z,0.96
2019-04-22T07:29:39.246Z,0.45
2019-04-22T07:30:28.017Z,0.39
2019-04-22T07:31:34.391Z,0.56
2019-04-22T07:32:58.066Z,1.43
2019-04-22T07:33:39.314Z,1.32
2019-04-22T07:34:27.740Z,0.87
2019-04-22T07:38:31.360Z,1.44
2019-04-22T07:39:35.476Z,1.23
2019-04-22T07:40:40.345Z,1.46
2019-04-22T07:41:41.113Z,1.00
2019-04-22T07:43:55.719Z,0.50
2019-04-22T07:44:31.266Z,0.79
2019-04-22T07:45:36.256Z,0.83
2019-04-22T07:46:26.358Z,1.08
2019-04-22T07:47:40.915Z,1.31
2019-04-22T07:48:43.319Z,1.44
2019-04-22T07:49:39.028Z,0.84
2019-04-22T07:52:35.398Z,1.01
2019-04-22T07:53:33.572Z,1.11
2019-04-22T07:54:25.895Z,0.70
2019-04-22T07:57:28.733Z,1.70
2019-04-22T07:59:28.353Z,1.33
2019-04-22T08:01:26.856Z,1.10
2019-04-22T08:02:37.882Z,1.87
2019-04-22T08:03:46.753Z,2.10
2019-04-22T08:04:34.653Z,1.23
2019-04-22T08:06:34.647Z,1.71
2019-04-22T08:07:38.356Z,1.10
2019-04-22T08:08:38.842Z,1.83
2019-04-22T08:11:42.321Z,0.55
2019-04-22T08:12:38.614Z,0.62
2019-04-22T08:13:38.537Z,0.79
2019-04-22T08:14:42.258Z,1.76
2019-04-22T08:15:38.691Z,1.71
2019-04-22T08:16:35.047Z,1.25
2019-04-22T08:18:35.901Z,1.61
2019-04-22T08:19:33.133Z,1.67
2019-04-22T08:20:31.915Z,0.93
2019-04-22T08:21:44.377Z,1.09
2019-04-22T08:22:33.964Z,0.69
2019-04-22T08:23:31.330Z,0.21
2019-04-22T08:25:38.835Z,2.25
2019-04-22T08:26:41.178Z,1.13
2019-04-22T08:27:30.176Z,0.14
2019-04-22T08:28:39.302Z,0.71
2019-04-22T08:29:37.096Z,1.45
2019-04-22T08:33:35.450Z,1.28
2019-04-22T08:34:38.892Z,0.96
2019-04-22T08:35:52.299Z,2.59
2019-04-22T08:36:40.964Z,3.00
2019-04-22T08:37:48.066Z,1.10
2019-04-22T08:38:37.611Z,1.57
2019-04-22T08:40:43.122Z,1.50
2019-04-22T08:41:34.336Z,2.63
2019-04-22T08:42:36.090Z,3.08
2019-04-22T08:43:32.969Z,0.58
2019-04-22T08:45:39.006Z,2.43
2019-04-22T08:46:40.970Z,1.80
2019-04-22T08:48:36.475Z,0.88
2019-04-22T08:49:44.483Z,1.39
2019-04-22T08:50:29.521Z,0.81
2019-04-22T08:52:27.574Z,0.33
2019-04-22T08:53:45.421Z,0.70
2019-04-22T08:56:39.786Z,1.44
2019-04-22T08:57:55.553Z,0.67
2019-04-22T08:58:28.021Z,1.55
2019-04-22T08:59:22.123Z,3.46
2019-04-22T09:00:34.223Z,0.34
2019-04-22T09:02:39.949Z,1.39
2019-04-22T09:03:40.049Z,1.65
2019-04-22T09:04:30.551Z,1.85
2019-04-22T09:05:48.598Z,3.13
2019-04-22T09:06:49.454Z,3.77
2019-04-22T09:08:34.069Z,2.24
2019-04-22T09:10:37.952Z,3.09
2019-04-22T09:11:33.758Z,3.11
2019-04-22T09:12:51.755Z,1.84
2019-04-22T09:13:31.762Z,1.45
2019-04-22T09:14:40.576Z,1.96
2019-04-22T09:15:34.529Z,1.95
2019-04-22T09:16:39.391Z,1.57
2019-04-22T09:17:35.113Z,0.81
2019-04-22T09:18:28.518Z,1.25
2019-04-22T09:19:24.068Z,2.04
2019-04-22T09:21:38.952Z,1.70
2019-04-22T09:22:39.422Z,1.24
2019-04-22T09:23:30.209Z,1.77
2019-04-22T09:24:30.353Z,1.95
2019-04-22T09:25:36.032Z,2.17
2019-04-22T09:26:30.711Z,2.38
2019-04-22T09:27:41.245Z,2.47
2019-04-22T09:28:37.747Z,1.78
2019-04-22T09:30:43.308Z,1.41
2019-04-22T09:31:37.243Z,1.16
2019-04-22T09:32:38.875Z,1.43
2019-04-22T09:33:30.331Z,2.02
2019-04-22T09:34:41.700Z,1.59
2019-04-22T09:35:38.682Z,1.16
2019-04-22T09:36:29.768Z,0.75
2019-04-22T09:37:39.173Z,1.98
2019-04-22T09:38:38.193Z,2.09
2019-04-22T09:39:29.403Z,2.54
2019-04-22T09:40:37.042Z,1.89
2019-04-22T09:41:41.267Z,1.93
2019-04-22T09:42:39.778Z,1.59
2019-04-22T09:44:34.773Z,0.86
2019-04-22T09:45:41.820Z,1.11
2019-04-22T09:46:45.441Z,1.37
2019-04-22T09:47:40.065Z,1.74
2019-04-22T09:48:33.188Z,1.63
2019-04-22T09:50:29.360Z,1.81
2019-04-22T09:51:37.429Z,2.18
2019-04-22T09:52:28.010Z,2.46
2019-04-22T09:55:29.867Z,2.40
2019-04-22T09:56:41.832Z,2.47
2019-04-22T09:57:24.485Z,1.05
2019-04-22T09:58:39.805Z,1.44
2019-04-22T09:59:36.723Z,2.57
2019-04-22T10:00:37.560Z,2.06
2019-04-22T10:01:38.463Z,1.60
2019-04-22T10:03:25.894Z,2.40
2019-04-22T10:06:27.869Z,1.65
2019-04-22T10:07:27.254Z,3.45
2019-04-22T10:08:41.145Z,1.81
2019-04-22T10:09:51.750Z,2.55
2019-04-22T10:10:37.984Z,3.55
2019-04-22T10:12:36.525Z,1.55
2019-04-22T10:13:45.136Z,1.66
2019-04-22T10:15:25.784Z,2.47
2019-04-22T10:16:37.130Z,1.91
2019-04-22T10:17:39.668Z,2.70
2019-04-22T10:18:42.017Z,2.53
2019-04-22T10:19:39.305Z,3.92
2019-04-22T10:21:35.310Z,2.72
2019-04-22T10:22:39.354Z,3.60
2019-04-22T10:23:39.272Z,2.89
2019-04-22T10:24:31.954Z,3.42
2019-04-22T10:25:35.397Z,2.61
2019-04-22T10:26:40.935Z,2.59
2019-04-22T10:27:25.898Z,1.38
2019-04-22T10:28:32.260Z,2.43
2019-04-22T10:29:43.455Z,1.13
2019-04-22T10:30:43.903Z,2.56
2019-04-22T10:31:39.818Z,1.81
2019-04-22T10:32:38.071Z,2.29
2019-04-22T10:33:27.127Z,1.86
2019-04-22T10:34:23.258Z,3.20
2019-04-22T10:35:17.280Z,1.78
2019-04-22T10:36:13.029Z,1.44
2019-04-22T10:37:16.283Z,1.40
2019-04-22T10:38:12.349Z,2.42
2019-04-22T10:39:12.671Z,2.62
2019-04-22T10:40:13.404Z,1.59
2019-04-22T10:41:12.400Z,1.98
2019-04-22T10:42:11.672Z,2.59
2019-04-22T10:43:11.696Z,0.73
2019-04-22T10:44:12.909Z,1.86
2019-04-22T10:45:12.366Z,1.81
2019-04-22T10:46:12.161Z,2.72
2019-04-22T10:47:11.914Z,1.04
2019-04-22T10:48:12.390Z,3.13
2019-04-22T10:49:12.708Z,1.56
2019-04-22T10:50:12.285Z,2.10
2019-04-22T10:51:12.698Z,3.07
2019-04-22T10:52:12.916Z,2.33
2019-04-22T10:53:11.670Z,1.07
2019-04-22T10:54:11.692Z,2.04
2019-04-22T10:55:11.743Z,1.79
2019-04-22T10:56:12.679Z,2.02
2019-04-22T10:57:11.704Z,2.85
2019-04-22T10:58:12.811Z,1.77
2019-04-22T10:59:11.684Z,2.80
2019-04-22T11:00:11.708Z,0.90
2019-04-22T11:01:11.687Z,2.61
2019-04-22T11:02:11.790Z,2.19
2019-04-22T11:03:12.077Z,1.13
2019-04-22T11:04:13.131Z,1.05
2019-04-22T11:05:12.252Z,1.55
2019-04-22T11:06:11.722Z,2.02
2019-04-22T11:07:13.197Z,2.13
2019-04-22T11:08:22.705Z,2.43
2019-04-22T11:09:12.446Z,1.83
2019-04-22T11:10:32.359Z,2.02
2019-04-22T11:11:26.214Z,1.20
2019-04-22T11:12:16.790Z,1.79
2019-04-22T11:13:11.713Z,0.63
2019-04-22T11:14:12.863Z,2.59
2019-04-22T11:15:11.812Z,1.73
2019-04-22T11:16:11.780Z,1.48
2019-04-22T11:17:11.699Z,2.60
2019-04-22T11:18:11.731Z,3.03
2019-04-22T11:19:11.905Z,2.10
2019-04-22T11:20:11.721Z,1.51
2019-04-22T11:21:11.720Z,1.59
2019-04-22T11:22:20.029Z,4.44
2019-04-22T11:23:11.704Z,3.44
2019-04-22T11:24:12.614Z,1.78
2019-04-22T11:25:11.950Z,1.47
2019-04-22T11:26:12.220Z,2.38
2019-04-22T11:27:12.637Z,1.20
2019-04-22T11:28:11.818Z,1.40
2019-04-22T11:29:12.059Z,0.87
2019-04-22T11:30:13.394Z,1.80
2019-04-22T11:31:12.479Z,1.46
2019-04-22T11:32:12.921Z,1.64
2019-04-22T11:33:12.076Z,1.36
2019-04-22T11:34:13.007Z,1.50
2019-04-22T11:35:11.946Z,1.68
2019-04-22T11:36:11.758Z,1.74
2019-04-22T11:37:12.270Z,1.85
2019-04-22T11:38:12.907Z,1.83
2019-04-22T11:39:13.589Z,1.95
2019-04-22T11:40:18.921Z,1.13
2019-04-22T11:41:12.637Z,1.77
2019-04-22T11:42:12.104Z,1.46
2019-04-22T11:43:12.406Z,3.28
2019-04-22T11:44:11.739Z,1.67
2019-04-22T11:45:13.112Z,2.99
2019-04-22T11:46:11.739Z,3.03
2019-04-22T11:47:11.900Z,2.48
2019-04-22T11:48:13.167Z,2.24
2019-04-22T11:49:12.126Z,1.96
2019-04-22T11:50:12.181Z,2.51
2019-04-22T11:51:11.773Z,2.19
2019-04-22T11:52:14.437Z,1.71
2019-04-22T11:53:13.020Z,3.37
2019-04-22T11:54:12.545Z,1.69
2019-04-22T11:55:12.856Z,2.05
2019-04-22T11:56:13.008Z,1.18
2019-04-22T11:57:12.852Z,3.28
2019-04-22T11:58:12.901Z,2.41
2019-04-22T11:59:12.913Z,4.04
2019-04-22T12:00:12.676Z,2.03
2019-04-22T12:01:12.777Z,3.45
2019-04-22T12:02:14.428Z,2.55
2019-04-22T12:03:12.667Z,2.94
2019-04-22T12:04:12.072Z,1.55
2019-04-22T12:05:12.022Z,2.29
2019-04-22T12:06:11.769Z,1.42
2019-04-22T12:07:12.828Z,2.39
2019-04-22T12:08:13.103Z,1.80
2019-04-22T12:09:12.135Z,1.84
2019-04-22T12:10:19.236Z,2.61
2019-04-22T12:11:11.760Z,1.32
2019-04-22T12:12:11.998Z,2.25
2019-04-22T12:13:12.267Z,2.49
2019-04-22T12:14:11.856Z,2.20
2019-04-22T12:15:12.712Z,1.99
2019-04-22T12:16:11.797Z,1.56
2019-04-22T12:17:11.801Z,1.25
2019-04-22T12:18:13.014Z,2.00
2019-04-22T12:19:13.028Z,1.86
2019-04-22T12:20:14.051Z,0.64
2019-04-22T12:21:13.166Z,2.41
2019-04-22T12:22:13.185Z,3.00
2019-04-22T12:23:12.726Z,1.79
2019-04-22T12:24:13.060Z,3.47
2019-04-22T12:25:12.472Z,2.03
2019-04-22T12:26:15.025Z,1.99
2019-04-22T12:27:11.794Z,1.58
2019-04-22T12:28:12.992Z,1.13
2019-04-22T12:29:13.178Z,2.59
2019-04-22T12:30:11.800Z,2.70
2019-04-22T12:31:13.357Z,2.47
2019-04-22T12:32:11.800Z,1.88
2019-04-22T12:33:14.546Z,2.35
2019-04-22T12:34:13.202Z,1.33
2019-04-22T12:35:11.799Z,2.25
2019-04-22T12:36:12.833Z,3.73
2019-04-22T12:37:14.905Z,2.23
2019-04-22T12:38:14.319Z,3.97
2019-04-22T12:39:11.817Z,2.72
2019-04-22T12:40:13.075Z,2.12
2019-04-22T12:41:12.596Z,1.95
2019-04-22T12:42:13.066Z,3.21
2019-04-22T12:43:12.847Z,2.16
2019-04-22T12:44:11.824Z,1.81
2019-04-22T12:45:12.170Z,1.76
2019-04-22T12:46:12.166Z,0.62
2019-04-22T12:47:13.048Z,2.12
2019-04-22T12:48:12.823Z,2.44
2019-04-22T12:49:12.166Z,1.32
2019-04-22T12:50:17.810Z,1.94
2019-04-22T12:51:13.183Z,2.27
2019-04-22T12:52:23.419Z,1.45
2019-04-22T12:53:16.703Z,0.38
2019-04-22T12:54:13.138Z,1.66
2019-04-22T12:55:12.056Z,2.67
2019-04-22T12:56:12.697Z,1.72
2019-04-22T12:57:12.342Z,1.63
2019-04-22T12:58:11.940Z,1.49
2019-04-22T12:59:11.860Z,2.53
2019-04-22T13:00:13.459Z,2.58
2019-04-22T13:01:12.839Z,2.51
2019-04-22T13:02:13.376Z,1.79
2019-04-22T13:03:11.865Z,1.92
2019-04-22T13:04:14.184Z,2.08
2019-04-22T13:05:12.450Z,1.45
2019-04-22T13:06:12.039Z,1.26
2019-04-22T13:07:11.937Z,1.17
2019-04-22T13:08:11.862Z,1.48
2019-04-22T13:09:12.663Z,3.14
2019-04-22T13:10:11.897Z,2.31
2019-04-22T13:11:14.452Z,3.60
2019-04-22T13:12:13.140Z,2.59
2019-04-22T13:13:13.218Z,1.04
2019-04-22T13:14:12.738Z,1.70
2019-04-22T13:15:11.882Z,1.03
2019-04-22T13:16:13.385Z,1.61
2019-04-22T13:17:12.275Z,2.49
2019-04-22T13:18:20.788Z,2.19
2019-04-22T13:19:15.241Z,1.54
2019-04-22T13:20:15.088Z,2.01
2019-04-22T13:21:13.105Z,1.87
2019-04-22T13:22:12.551Z,1.51
2019-04-22T13:23:11.888Z,1.75
2019-04-22T13:24:13.220Z,1.89
2019-04-22T13:25:12.435Z,1.31
2019-04-22T13:26:12.771Z,1.84
2019-04-22T13:27:12.973Z,2.14
2019-04-22T13:28:13.202Z,1.59
2019-04-22T13:29:12.878Z,1.00
2019-04-22T13:30:12.462Z,0.96
2019-04-22T13:31:11.922Z,1.69
2019-04-22T13:32:13.199Z,1.33
2019-04-22T13:33:12.629Z,1.77
2019-04-22T13:35:12.819Z,1.49
2019-04-22T13:36:12.068Z,3.07
2019-04-22T13:37:12.810Z,2.62
2019-04-22T13:38:12.967Z,1.99
2019-04-22T13:39:13.165Z,1.34
2019-04-22T13:40:12.781Z,1.16
2019-04-22T13:41:26.742Z,0.97
2019-04-22T13:42:16.181Z,1.00
2019-04-22T13:43:13.168Z,0.78
2019-04-22T13:44:12.744Z,0.85
2019-04-22T13:45:11.927Z,1.20
2019-04-22T13:46:12.477Z,2.42
2019-04-22T13:47:28.410Z,1.46
2019-04-22T13:48:33.581Z,1.53
2019-04-22T13:49:40.686Z,1.66
2019-04-22T13:52:45.148Z,1.30
2019-04-22T13:53:44.746Z,1.51
2019-04-22T13:54:48.627Z,1.79
2019-04-22T13:55:40.870Z,1.46
2019-04-22T13:56:32.831Z,0.69
2019-04-22T13:57:26.162Z,1.85
2019-04-22T13:58:24.312Z,1.93
2019-04-22T13:59:23.043Z,1.43
2019-04-22T14:00:13.532Z,1.36
2019-04-22T14:01:12.726Z,0.64
2019-04-22T14:02:12.769Z,0.51
2019-04-22T14:03:12.875Z,0.83
2019-04-22T14:04:12.449Z,1.45
2019-04-22T14:05:12.859Z,2.35
2019-04-22T14:06:13.185Z,3.03
2019-04-22T14:07:12.642Z,4.77
2019-04-22T14:08:12.651Z,1.92
2019-04-22T14:09:13.566Z,1.13
2019-04-22T14:10:12.221Z,1.16
2019-04-22T14:11:21.542Z,0.98
2019-04-22T14:12:13.782Z,1.70
2019-04-22T14:13:12.218Z,0.64
2019-04-22T14:14:12.742Z,1.19
2019-04-22T14:15:11.964Z,1.17
2019-04-22T14:16:13.280Z,0.67
2019-04-22T14:17:13.118Z,0.16
2019-04-22T14:18:12.898Z,1.06
2019-04-22T14:19:12.031Z,0.82
2019-04-22T14:20:13.129Z,0.57
2019-04-22T14:21:12.513Z,0.69
2019-04-22T14:22:11.992Z,0.64
2019-04-22T14:23:13.646Z,0.92
2019-04-22T14:24:13.797Z,1.28
2019-04-22T14:25:12.559Z,1.31
2019-04-22T14:26:13.357Z,1.30
2019-04-22T14:27:25.572Z,1.29
2019-04-22T14:28:16.938Z,2.70
2019-04-22T14:29:13.390Z,1.57
2019-04-22T14:30:12.566Z,1.87
2019-04-22T14:31:12.758Z,1.64
2019-04-22T14:33:12.267Z,2.10
2019-04-22T14:34:13.368Z,1.79
2019-04-22T14:35:13.246Z,0.61
2019-04-22T14:36:11.986Z,1.03
2019-04-22T14:37:12.102Z,1.37
2019-04-22T14:38:12.405Z,1.45
2019-04-22T14:39:12.346Z,1.63
2019-04-22T14:40:13.605Z,1.19
2019-04-22T14:41:30.532Z,0.69
2019-04-22T14:43:24.731Z,0.63
2019-04-22T14:44:23.302Z,1.33
2019-04-22T14:44:24.523Z,0.50
2019-04-22T14:45:41.550Z,1.08
2019-04-22T14:46:29.834Z,2.76
2019-04-22T14:47:26.524Z,2.30
2019-04-22T14:48:41.904Z,1.15
2019-04-22T14:49:28.835Z,1.73
2019-04-22T14:51:31.916Z,1.93
2019-04-22T14:52:30.692Z,1.33
2019-04-22T14:53:30.838Z,0.91
2019-04-22T14:54:26.469Z,1.47
2019-04-22T14:55:18.978Z,1.96
2019-04-22T14:56:12.802Z,1.66
2019-04-22T14:57:12.939Z,1.92
2019-04-22T14:58:13.043Z,1.31
2019-04-22T14:59:13.365Z,2.48
2019-04-22T15:00:12.018Z,1.30
2019-04-22T15:01:12.939Z,1.88
2019-04-22T15:02:12.026Z,1.22
2019-04-22T15:03:13.408Z,1.44
2019-04-22T15:04:13.344Z,2.81
2019-04-22T15:05:12.282Z,2.78
2019-04-22T15:06:12.615Z,1.62
2019-04-22T15:07:12.722Z,1.77
2019-04-22T15:08:13.157Z,1.56
2019-04-22T15:09:12.272Z,1.40
2019-04-22T15:10:13.390Z,2.04
2019-04-22T15:11:13.126Z,1.18
2019-04-22T15:12:21.957Z,2.47
2019-04-22T15:13:13.335Z,1.97
2019-04-22T15:14:12.037Z,0.89
2019-04-22T15:15:13.445Z,0.78
2019-04-22T15:16:12.054Z,0.69
2019-04-22T15:17:13.131Z,0.71
2019-04-22T15:18:13.449Z,2.09
2019-04-22T15:19:12.088Z,0.87
2019-04-22T15:20:12.073Z,1.45
2019-04-22T15:21:12.082Z,1.29
2019-04-22T15:22:12.650Z,0.78
2019-04-22T15:23:12.680Z,1.31
2019-04-22T15:24:12.041Z,2.23
2019-04-22T15:25:12.587Z,2.16
2019-04-22T15:26:12.601Z,2.05
2019-04-22T15:27:12.059Z,1.91
2019-04-22T15:28:13.316Z,1.34
2019-04-22T15:29:13.159Z,0.93
2019-04-22T15:30:12.058Z,1.35
2019-04-22T15:31:13.273Z,1.17
2019-04-22T15:32:13.416Z,2.48
2019-04-22T15:33:12.077Z,1.56
2019-04-22T15:34:12.396Z,1.19
2019-04-22T15:35:13.379Z,1.64
2019-04-22T15:36:12.163Z,1.58
2019-04-22T15:37:12.108Z,2.36
2019-04-22T15:38:13.231Z,2.37